sensor_id;sensor_type;location;lat;lon;timestamp;pressure;altitude;pressure_sealevel;temperature;humidity
6453;BME280;3259;51.080;13.712;2023-07-09T00:02:14;100753.81;;;29.38;36.62
6453;BME280;3259;51.080;13.712;2023-07-09T00:05:04;100753.22;;;29.36;37.02
6453;BME280;3259;51.080;13.712;2023-07-09T00:07:54;100752.28;;;29.24;37.02
6453;BME280;3259;51.080;13.712;2023-07-09T00:10:42;100759.69;;;29.22;37.58
6453;BME280;3259;51.080;13.712;2023-07-09T00:13:31;100758.09;;;29.14;38.09
6453;BME280;3259;51.080;13.712;2023-07-09T00:16:23;100760.69;;;29.27;37.56
6453;BME280;3259;51.080;13.712;2023-07-09T00:19:13;100761.34;;;29.29;36.97
6453;BME280;3259;51.080;13.712;2023-07-09T00:22:13;100759.69;;;29.22;37.32
6453;BME280;3259;51.080;13.712;2023-07-09T00:25:05;100757.88;;;29.16;37.67
6453;BME280;3259;51.080;13.712;2023-07-09T00:27:54;100758.53;;;29.11;38.01
6453;BME280;3259;51.080;13.712;2023-07-09T00:30:44;100754.41;;;29.09;37.79
6453;BME280;3259;51.080;13.712;2023-07-09T00:33:32;100756.91;;;29.04;37.95
6453;BME280;3259;51.080;13.712;2023-07-09T00:36:26;100748.66;;;28.99;37.98
6453;BME280;3259;51.080;13.712;2023-07-09T00:39:16;100764.16;;;28.97;38.51
6453;BME280;3259;51.080;13.712;2023-07-09T00:42:11;100755.28;;;29.03;38.10
6453;BME280;3259;51.080;13.712;2023-07-09T00:45:01;100752.31;;;29.11;37.77
6453;BME280;3259;51.080;13.712;2023-07-09T00:47:54;100753.19;;;29.05;37.78
6453;BME280;3259;51.080;13.712;2023-07-09T00:50:48;100747.66;;;29.00;38.53
6453;BME280;3259;51.080;13.712;2023-07-09T00:53:38;100748.25;;;29.02;38.58
6453;BME280;3259;51.080;13.712;2023-07-09T00:56:35;100739.97;;;29.03;38.32
6453;BME280;3259;51.080;13.712;2023-07-09T00:59:29;100749.09;;;28.96;38.27
6453;BME280;3259;51.080;13.712;2023-07-09T01:02:20;100745.97;;;28.99;38.22
6453;BME280;3259;51.080;13.712;2023-07-09T01:05:11;100751.16;;;29.00;38.37
6453;BME280;3259;51.080;13.712;2023-07-09T01:08:01;100746.84;;;28.93;38.69
6453;BME280;3259;51.080;13.712;2023-07-09T01:10:49;100743.56;;;28.91;38.28
6453;BME280;3259;51.080;13.712;2023-07-09T01:13:38;100742.06;;;28.95;38.75
6453;BME280;3259;51.080;13.712;2023-07-09T01:16:31;100740.03;;;28.90;38.63
6453;BME280;3259;51.080;13.712;2023-07-09T01:19:21;100745.41;;;28.84;38.30
6453;BME280;3259;51.080;13.712;2023-07-09T01:22:14;100736.72;;;28.88;38.36
6453;BME280;3259;51.080;13.712;2023-07-09T01:25:06;100741.88;;;28.90;38.38
6453;BME280;3259;51.080;13.712;2023-07-09T01:27:56;100741.88;;;28.96;38.77
6453;BME280;3259;51.080;13.712;2023-07-09T01:30:46;100746.84;;;28.86;38.63
6453;BME280;3259;51.080;13.712;2023-07-09T01:33:42;100752.84;;;28.82;38.74
6453;BME280;3259;51.080;13.712;2023-07-09T01:36:31;100749.13;;;28.83;38.83
6453;BME280;3259;51.080;13.712;2023-07-09T01:39:23;100750.38;;;28.80;38.22
6453;BME280;3259;51.080;13.712;2023-07-09T01:42:12;100743.31;;;28.86;37.87
6453;BME280;3259;51.080;13.712;2023-07-09T01:45:01;100743.38;;;28.73;38.48
6453;BME280;3259;51.080;13.712;2023-07-09T01:47:51;100742.16;;;28.69;38.39
6453;BME280;3259;51.080;13.712;2023-07-09T01:50:43;100747.97;;;28.66;37.87
6453;BME280;3259;51.080;13.712;2023-07-09T01:53:32;100743.81;;;28.70;37.97
6453;BME280;3259;51.080;13.712;2023-07-09T01:56:22;100752.88;;;28.75;37.91
6453;BME280;3259;51.080;13.712;2023-07-09T01:59:11;100755.16;;;28.72;37.98
6453;BME280;3259;51.080;13.712;2023-07-09T02:02:00;100744.88;;;28.62;38.29
6453;BME280;3259;51.080;13.712;2023-07-09T02:04:50;100748.00;;;28.59;38.61
6453;BME280;3259;51.080;13.712;2023-07-09T02:07:39;100747.59;;;28.56;38.36
6453;BME280;3259;51.080;13.712;2023-07-09T02:10:28;100743.88;;;28.57;37.74
6453;BME280;3259;51.080;13.712;2023-07-09T02:13:18;100735.59;;;28.65;37.79
6453;BME280;3259;51.080;13.712;2023-07-09T02:16:07;100743.81;;;28.70;37.11
6453;BME280;3259;51.080;13.712;2023-07-09T02:18:56;100737.88;;;28.61;37.23
6453;BME280;3259;51.080;13.712;2023-07-09T02:21:45;100740.13;;;28.58;37.69
6453;BME280;3259;51.080;13.712;2023-07-09T02:24:33;100738.47;;;28.63;37.14
6453;BME280;3259;51.080;13.712;2023-07-09T02:27:22;100737.47;;;28.58;36.51
6453;BME280;3259;51.080;13.712;2023-07-09T02:30:12;100736.47;;;28.46;36.95
6453;BME280;3259;51.080;13.712;2023-07-09T02:33:01;100744.97;;;28.37;36.72
6453;BME280;3259;51.080;13.712;2023-07-09T02:35:50;100746.38;;;28.39;37.12
6453;BME280;3259;51.080;13.712;2023-07-09T02:38:39;100751.75;;;28.39;37.16
6453;BME280;3259;51.080;13.712;2023-07-09T02:41:28;100748.88;;;28.34;37.02
6453;BME280;3259;51.080;13.712;2023-07-09T02:44:17;100746.41;;;28.33;37.51
6453;BME280;3259;51.080;13.712;2023-07-09T02:47:08;100742.66;;;28.27;37.66
6453;BME280;3259;51.080;13.712;2023-07-09T02:49:57;100744.72;;;28.38;37.27
6453;BME280;3259;51.080;13.712;2023-07-09T02:52:45;100744.72;;;28.38;36.63
6453;BME280;3259;51.080;13.712;2023-07-09T02:55:34;100744.56;;;28.33;36.69
6453;BME280;3259;51.080;13.712;2023-07-09T02:58:23;100747.63;;;28.30;36.98
6453;BME280;3259;51.080;13.712;2023-07-09T03:01:11;100747.03;;;28.28;36.36
6453;BME280;3259;51.080;13.712;2023-07-09T03:04:02;100748.03;;;28.21;36.86
6453;BME280;3259;51.080;13.712;2023-07-09T03:06:51;100746.81;;;28.17;36.51
6453;BME280;3259;51.080;13.712;2023-07-09T03:09:40;100750.53;;;28.22;36.51
6453;BME280;3259;51.080;13.712;2023-07-09T03:12:29;100762.47;;;28.26;36.32
6453;BME280;3259;51.080;13.712;2023-07-09T03:15:17;100759.22;;;28.11;36.16
6453;BME280;3259;51.080;13.712;2023-07-09T03:18:06;100758.41;;;28.11;36.01
6453;BME280;3259;51.080;13.712;2023-07-09T03:20:56;100767.06;;;28.06;36.52
6453;BME280;3259;51.080;13.712;2023-07-09T03:23:45;100764.38;;;28.06;36.05
6453;BME280;3259;51.080;13.712;2023-07-09T03:26:34;100765.81;;;27.96;36.77
6453;BME280;3259;51.080;13.712;2023-07-09T03:29:23;100765.41;;;27.92;36.53
6453;BME280;3259;51.080;13.712;2023-07-09T03:32:12;100770.16;;;28.03;36.40
6453;BME280;3259;51.080;13.712;2023-07-09T03:35:01;100769.09;;;28.04;36.32
6453;BME280;3259;51.080;13.712;2023-07-09T03:37:51;100766.84;;;27.95;36.46
6453;BME280;3259;51.080;13.712;2023-07-09T03:40:40;100770.78;;;28.05;36.36
6453;BME280;3259;51.080;13.712;2023-07-09T03:43:28;100768.31;;;27.97;36.17
6453;BME280;3259;51.080;13.712;2023-07-09T03:46:17;100768.31;;;27.84;37.11
6453;BME280;3259;51.080;13.712;2023-07-09T03:49:06;100770.38;;;27.95;36.48
6453;BME280;3259;51.080;13.712;2023-07-09T03:51:55;100775.75;;;27.89;36.80
6453;BME280;3259;51.080;13.712;2023-07-09T03:54:45;100775.75;;;27.89;36.52
6453;BME280;3259;51.080;13.712;2023-07-09T03:57:34;100779.66;;;27.86;36.77
6453;BME280;3259;51.080;13.712;2023-07-09T04:00:23;100778.63;;;27.74;37.40
6453;BME280;3259;51.080;13.712;2023-07-09T04:03:12;100776.13;;;27.79;37.24
6453;BME280;3259;51.080;13.712;2023-07-09T04:06:01;100781.28;;;27.74;37.28
6453;BME280;3259;51.080;13.712;2023-07-09T04:08:50;100779.00;;;27.71;37.37
6453;BME280;3259;51.080;13.712;2023-07-09T04:11:40;100784.19;;;27.79;37.31
6453;BME280;3259;51.080;13.712;2023-07-09T04:14:28;100775.75;;;27.82;37.13
6453;BME280;3259;51.080;13.712;2023-07-09T04:17:17;100773.69;;;27.78;36.99
6453;BME280;3259;51.080;13.712;2023-07-09T04:20:07;100774.91;;;27.75;37.56
6453;BME280;3259;51.080;13.712;2023-07-09T04:22:56;100780.03;;;27.70;37.62
6453;BME280;3259;51.080;13.712;2023-07-09T04:25:45;100778.63;;;27.74;37.26
6453;BME280;3259;51.080;13.712;2023-07-09T04:28:35;100789.34;;;27.81;37.47
6453;BME280;3259;51.080;13.712;2023-07-09T04:31:24;100785.63;;;27.82;37.14
6453;BME280;3259;51.080;13.712;2023-07-09T04:34:13;100792.03;;;27.74;37.31
6453;BME280;3259;51.080;13.712;2023-07-09T04:37:02;100786.81;;;27.66;37.89
6453;BME280;3259;51.080;13.712;2023-07-09T04:39:51;100799.19;;;27.67;38.19
6453;BME280;3259;51.080;13.712;2023-07-09T04:42:40;100794.47;;;27.69;38.02
6453;BME280;3259;51.080;13.712;2023-07-09T04:45:30;100793.06;;;27.73;38.08
6453;BME280;3259;51.080;13.712;2023-07-09T04:48:19;100794.09;;;27.79;37.79
6453;BME280;3259;51.080;13.712;2023-07-09T04:51:08;100796.78;;;27.85;37.45
6453;BME280;3259;51.080;13.712;2023-07-09T04:53:56;100794.91;;;27.92;36.98
6453;BME280;3259;51.080;13.712;2023-07-09T04:56:45;100802.56;;;27.82;37.71
6453;BME280;3259;51.080;13.712;2023-07-09T04:59:34;100813.28;;;27.82;37.51
6453;BME280;3259;51.080;13.712;2023-07-09T05:02:24;100808.72;;;27.76;38.00
6453;BME280;3259;51.080;13.712;2023-07-09T05:05:13;100808.09;;;27.74;37.74
6453;BME280;3259;51.080;13.712;2023-07-09T05:08:03;100811.63;;;27.75;38.07
6453;BME280;3259;51.080;13.712;2023-07-09T05:10:52;100812.88;;;27.85;37.62
6453;BME280;3259;51.080;13.712;2023-07-09T05:13:40;100800.50;;;27.84;37.66
6453;BME280;3259;51.080;13.712;2023-07-09T05:16:29;100807.91;;;27.82;37.79
6453;BME280;3259;51.080;13.712;2023-07-09T05:19:19;100801.28;;;27.78;38.04
6453;BME280;3259;51.080;13.712;2023-07-09T05:22:08;100801.28;;;27.78;37.87
6453;BME280;3259;51.080;13.712;2023-07-09T05:24:57;100800.91;;;27.81;37.47
6453;BME280;3259;51.080;13.712;2023-07-09T05:27:46;100811.63;;;27.88;37.64
6453;BME280;3259;51.080;13.712;2023-07-09T05:30:34;100818.66;;;27.89;38.00
6453;BME280;3259;51.080;13.712;2023-07-09T05:33:23;100812.03;;;27.91;38.00
6453;BME280;3259;51.080;13.712;2023-07-09T05:36:13;100811.22;;;27.97;37.52
6453;BME280;3259;51.080;13.712;2023-07-09T05:39:03;100814.50;;;27.99;37.36
6453;BME280;3259;51.080;13.712;2023-07-09T05:41:51;100812.25;;;27.96;37.22
6453;BME280;3259;51.080;13.712;2023-07-09T05:44:40;100818.66;;;27.95;37.65
6453;BME280;3259;51.080;13.712;2023-07-09T05:47:29;100815.75;;;27.97;37.55
6453;BME280;3259;51.080;13.712;2023-07-09T05:50:18;100813.28;;;27.95;37.49
6453;BME280;3259;51.080;13.712;2023-07-09T05:53:08;100807.91;;;27.95;37.67
6453;BME280;3259;51.080;13.712;2023-07-09T05:55:58;100808.13;;;28.00;37.85
6453;BME280;3259;51.080;13.712;2023-07-09T05:58:47;100815.34;;;28.06;37.81
6453;BME280;3259;51.080;13.712;2023-07-09T06:01:35;100804.63;;;28.06;37.50
6453;BME280;3259;51.080;13.712;2023-07-09T06:04:24;100809.56;;;28.09;37.14
6453;BME280;3259;51.080;13.712;2023-07-09T06:07:13;100817.38;;;28.04;37.72
6453;BME280;3259;51.080;13.712;2023-07-09T06:10:04;100805.44;;;28.07;38.04
6453;BME280;3259;51.080;13.712;2023-07-09T06:12:54;100805.22;;;28.08;37.80
6453;BME280;3259;51.080;13.712;2023-07-09T06:15:45;100801.31;;;28.11;37.53
6453;BME280;3259;51.080;13.712;2023-07-09T06:18:34;100808.34;;;28.12;37.49
6453;BME280;3259;51.080;13.712;2023-07-09T06:21:23;100802.13;;;28.11;38.02
6453;BME280;3259;51.080;13.712;2023-07-09T06:24:13;100809.16;;;28.12;38.42
6453;BME280;3259;51.080;13.712;2023-07-09T06:27:04;100805.03;;;28.16;38.16
6453;BME280;3259;51.080;13.712;2023-07-09T06:29:52;100801.91;;;28.26;38.37
6453;BME280;3259;51.080;13.712;2023-07-09T06:32:41;100812.84;;;28.24;37.94
6453;BME280;3259;51.080;13.712;2023-07-09T06:35:30;100808.50;;;28.30;38.19
6453;BME280;3259;51.080;13.712;2023-07-09T06:38:19;100804.59;;;28.26;38.07
6453;BME280;3259;51.080;13.712;2023-07-09T06:41:08;100813.06;;;28.29;38.03
6453;BME280;3259;51.080;13.712;2023-07-09T06:43:58;100819.84;;;28.32;37.73
6453;BME280;3259;51.080;13.712;2023-07-09T06:46:46;100815.38;;;28.32;38.09
6453;BME280;3259;51.080;13.712;2023-07-09T06:49:35;100819.50;;;28.41;37.74
6453;BME280;3259;51.080;13.712;2023-07-09T06:52:24;100817.84;;;28.40;38.36
6453;BME280;3259;51.080;13.712;2023-07-09T06:55:15;100818.66;;;28.41;38.12
6453;BME280;3259;51.080;13.712;2023-07-09T06:58:04;100811.81;;;28.38;38.26
6453;BME280;3259;51.080;13.712;2023-07-09T07:00:54;100823.19;;;28.53;37.78
6453;BME280;3259;51.080;13.712;2023-07-09T07:03:43;100819.03;;;28.57;37.67
6453;BME280;3259;51.080;13.712;2023-07-09T07:06:32;100824.41;;;28.57;38.51
6453;BME280;3259;51.080;13.712;2023-07-09T07:09:21;100809.13;;;28.64;38.01
6453;BME280;3259;51.080;13.712;2023-07-09T07:12:10;100808.84;;;28.78;38.02
6453;BME280;3259;51.080;13.712;2023-07-09T07:14:59;100817.94;;;28.77;38.01
6453;BME280;3259;51.080;13.712;2023-07-09T07:17:49;100814.84;;;28.74;37.56
6453;BME280;3259;51.080;13.712;2023-07-09T07:20:38;100812.38;;;28.79;38.04
6453;BME280;3259;51.080;13.712;2023-07-09T07:23:26;100814.78;;;28.87;38.04
6453;BME280;3259;51.080;13.712;2023-07-09T07:26:15;100812.34;;;28.92;37.75
6453;BME280;3259;51.080;13.712;2023-07-09T07:29:04;100810.66;;;29.04;37.30
6453;BME280;3259;51.080;13.712;2023-07-09T07:31:53;100813.97;;;28.99;37.87
6453;BME280;3259;51.080;13.712;2023-07-09T07:34:44;100808.94;;;29.16;37.80
6453;BME280;3259;51.080;13.712;2023-07-09T07:37:32;100814.25;;;29.29;37.65
6453;BME280;3259;51.080;13.712;2023-07-09T07:40:21;100820.09;;;29.19;37.31
6453;BME280;3259;51.080;13.712;2023-07-09T07:43:10;100812.16;;;29.31;37.81
6453;BME280;3259;51.080;13.712;2023-07-09T07:45:58;100810.44;;;29.43;38.04
6453;BME280;3259;51.080;13.712;2023-07-09T07:48:48;100814.69;;;29.26;38.71
6453;BME280;3259;51.080;13.712;2023-07-09T07:51:38;100806.66;;;29.19;39.04
6453;BME280;3259;51.080;13.712;2023-07-09T07:54:28;100812.66;;;29.15;39.19
6453;BME280;3259;51.080;13.712;2023-07-09T07:57:18;100811.19;;;29.19;38.86
6453;BME280;3259;51.080;13.712;2023-07-09T08:00:08;100807.72;;;29.12;39.07
6453;BME280;3259;51.080;13.712;2023-07-09T08:02:57;100804.59;;;29.15;39.29
6453;BME280;3259;51.080;13.712;2023-07-09T08:05:48;100810.38;;;29.18;39.12
6453;BME280;3259;51.080;13.712;2023-07-09T08:08:38;100813.28;;;29.17;38.95
6453;BME280;3259;51.080;13.712;2023-07-09T08:11:27;100809.38;;;29.13;38.92
6453;BME280;3259;51.080;13.712;2023-07-09T08:14:16;100803.16;;;29.12;39.15
6453;BME280;3259;51.080;13.712;2023-07-09T08:17:06;100796.09;;;29.18;39.36
6453;BME280;3259;51.080;13.712;2023-07-09T08:19:55;100795.50;;;29.16;39.27
6453;BME280;3259;51.080;13.712;2023-07-09T08:22:44;100801.47;;;29.18;39.02
6453;BME280;3259;51.080;13.712;2023-07-09T08:25:34;100797.75;;;29.19;39.19
6453;BME280;3259;51.080;13.712;2023-07-09T08:28:23;100800.00;;;29.22;39.45
6453;BME280;3259;51.080;13.712;2023-07-09T08:31:12;100793.19;;;29.26;38.84
6453;BME280;3259;51.080;13.712;2023-07-09T08:34:01;100789.88;;;29.24;39.55
6453;BME280;3259;51.080;13.712;2023-07-09T08:36:50;100786.75;;;29.27;39.44
6453;BME280;3259;51.080;13.712;2023-07-09T08:39:38;100781.56;;;29.32;39.09
6453;BME280;3259;51.080;13.712;2023-07-09T08:42:33;100778.25;;;29.30;38.99
6453;BME280;3259;51.080;13.712;2023-07-09T08:45:50;100788.56;;;29.33;39.15
6453;BME280;3259;51.080;13.712;2023-07-09T08:48:45;100782.38;;;29.32;39.10
6453;BME280;3259;51.080;13.712;2023-07-09T08:51:38;100780.31;;;29.34;39.10
6453;BME280;3259;51.080;13.712;2023-07-09T08:54:33;100781.91;;;29.42;38.99
6453;BME280;3259;51.080;13.712;2023-07-09T08:57:25;100780.72;;;29.38;39.59
6453;BME280;3259;51.080;13.712;2023-07-09T09:00:20;100785.19;;;29.44;39.10
6453;BME280;3259;51.080;13.712;2023-07-09T09:03:14;100779.63;;;29.45;39.51
6453;BME280;3259;51.080;13.712;2023-07-09T09:06:11;100778.56;;;29.53;38.74
6453;BME280;3259;51.080;13.712;2023-07-09T09:09:05;100776.91;;;29.52;38.81
6453;BME280;3259;51.080;13.712;2023-07-09T09:12:08;100774.38;;;29.57;39.26
6453;BME280;3259;51.080;13.712;2023-07-09T09:15:03;100782.25;;;29.58;38.79
6453;BME280;3259;51.080;13.712;2023-07-09T09:17:58;100779.72;;;29.63;39.36
6453;BME280;3259;51.080;13.712;2023-07-09T09:20:55;100774.75;;;29.67;38.73
6453;BME280;3259;51.080;13.712;2023-07-09T09:23:48;100782.19;;;29.65;38.73
6453;BME280;3259;51.080;13.712;2023-07-09T09:26:41;100772.88;;;29.67;39.23
6453;BME280;3259;51.080;13.712;2023-07-09T09:29:31;100772.50;;;29.64;38.99
6453;BME280;3259;51.080;13.712;2023-07-09T09:32:25;100772.84;;;29.74;38.96
6453;BME280;3259;51.080;13.712;2023-07-09T09:35:17;100769.75;;;29.70;39.20
6453;BME280;3259;51.080;13.712;2023-07-09T09:38:11;100770.59;;;29.71;39.14
6453;BME280;3259;51.080;13.712;2023-07-09T09:41:00;100767.25;;;29.69;39.26
6453;BME280;3259;51.080;13.712;2023-07-09T09:43:52;100774.53;;;29.68;38.75
6453;BME280;3259;51.080;13.712;2023-07-09T09:46:42;100763.47;;;29.76;38.59
6453;BME280;3259;51.080;13.712;2023-07-09T09:49:38;100770.75;;;29.76;38.94
6453;BME280;3259;51.080;13.712;2023-07-09T09:52:30;100765.22;;;29.71;38.84
6453;BME280;3259;51.080;13.712;2023-07-09T09:55:23;100765.56;;;29.74;38.60
6453;BME280;3259;51.080;13.712;2023-07-09T09:58:14;100758.50;;;29.80;39.28
6453;BME280;3259;51.080;13.712;2023-07-09T10:01:03;100760.97;;;29.81;38.65
6453;BME280;3259;51.080;13.712;2023-07-09T10:03:56;100764.66;;;29.87;39.27
6453;BME280;3259;51.080;13.712;2023-07-09T10:06:47;100760.75;;;29.83;38.86
6453;BME280;3259;51.080;13.712;2023-07-09T10:09:47;100761.38;;;29.85;39.16
6453;BME280;3259;51.080;13.712;2023-07-09T10:12:39;100758.94;;;29.77;39.00
6453;BME280;3259;51.080;13.712;2023-07-09T10:15:39;100751.03;;;29.82;39.38
6453;BME280;3259;51.080;13.712;2023-07-09T10:18:39;100754.34;;;29.84;39.01
6453;BME280;3259;51.080;13.712;2023-07-09T10:21:34;100750.59;;;29.85;38.83
6453;BME280;3259;51.080;13.712;2023-07-09T10:24:35;100755.31;;;29.89;39.06
6453;BME280;3259;51.080;13.712;2023-07-09T10:27:32;100752.25;;;29.86;39.11
6453;BME280;3259;51.080;13.712;2023-07-09T10:30:35;100754.69;;;29.87;38.77
6453;BME280;3259;51.080;13.712;2023-07-09T10:33:34;100752.25;;;29.86;39.30
6453;BME280;3259;51.080;13.712;2023-07-09T10:36:37;100743.94;;;29.87;38.95
6453;BME280;3259;51.080;13.712;2023-07-09T10:39:33;100748.50;;;29.87;38.76
6453;BME280;3259;51.080;13.712;2023-07-09T10:42:25;100740.59;;;29.92;39.28
6453;BME280;3259;51.080;13.712;2023-07-09T10:45:22;100743.88;;;29.94;39.37
6453;BME280;3259;51.080;13.712;2023-07-09T10:48:15;100735.16;;;29.98;39.03
6453;BME280;3259;51.080;13.712;2023-07-09T10:51:10;100741.81;;;29.96;39.28
6453;BME280;3259;51.080;13.712;2023-07-09T10:54:10;100743.88;;;29.94;39.29
6453;BME280;3259;51.080;13.712;2023-07-09T10:57:05;100732.31;;;29.93;39.40
6453;BME280;3259;51.080;13.712;2023-07-09T10:59:58;100740.19;;;29.95;39.23
6453;BME280;3259;51.080;13.712;2023-07-09T11:02:55;100741.81;;;29.96;39.02
6453;BME280;3259;51.080;13.712;2023-07-09T11:05:48;100741.81;;;29.96;39.47
6453;BME280;3259;51.080;13.712;2023-07-09T11:08:39;100739.13;;;29.96;39.40
6453;BME280;3259;51.080;13.712;2023-07-09T11:11:33;100736.84;;;29.93;39.34
6453;BME280;3259;51.080;13.712;2023-07-09T11:14:27;100736.03;;;29.92;39.44
6453;BME280;3259;51.080;13.712;2023-07-09T11:17:19;100726.88;;;30.00;38.91
6453;BME280;3259;51.080;13.712;2023-07-09T11:20:18;100726.41;;;30.03;39.42
6453;BME280;3259;51.080;13.712;2023-07-09T11:23:17;100726.41;;;30.03;39.14
6453;BME280;3259;51.080;13.712;2023-07-09T11:26:12;100724.97;;;30.00;39.27
6453;BME280;3259;51.080;13.712;2023-07-09T11:29:15;100724.19;;;30.00;38.92
6453;BME280;3259;51.080;13.712;2023-07-09T11:32:08;100718.34;;;30.03;39.26
6453;BME280;3259;51.080;13.712;2023-07-09T11:35:20;100714.84;;;30.02;39.40
6453;BME280;3259;51.080;13.712;2023-07-09T11:38:15;100716.28;;;30.05;39.07
6453;BME280;3259;51.080;13.712;2023-07-09T11:41:27;100724.75;;;30.08;39.14
6453;BME280;3259;51.080;13.712;2023-07-09T11:44:18;100712.72;;;30.11;38.78
6453;BME280;3259;51.080;13.712;2023-07-09T11:47:18;100711.47;;;30.13;39.27
6453;BME280;3259;51.080;13.712;2023-07-09T11:50:21;100698.22;;;30.12;38.80
6453;BME280;3259;51.080;13.712;2023-07-09T11:53:25;100696.72;;;30.16;39.33
6453;BME280;3259;51.080;13.712;2023-07-09T11:56:18;100703.59;;;30.12;38.95
6453;BME280;3259;51.080;13.712;2023-07-09T11:59:11;100695.25;;;30.20;39.20
6453;BME280;3259;51.080;13.712;2023-07-09T12:02:00;100692.97;;;30.17;39.45
6453;BME280;3259;51.080;13.712;2023-07-09T12:04:51;100685.72;;;30.17;39.17
6453;BME280;3259;51.080;13.712;2023-07-09T12:07:42;100694.00;;;30.16;38.85
6453;BME280;3259;51.080;13.712;2023-07-09T12:10:33;100695.25;;;30.20;39.22
6453;BME280;3259;51.080;13.712;2023-07-09T12:13:24;100684.00;;;30.23;39.33
6453;BME280;3259;51.080;13.712;2023-07-09T12:16:31;100683.56;;;30.26;39.08
6453;BME280;3259;51.080;13.712;2023-07-09T12:19:23;100681.47;;;30.28;38.92
6453;BME280;3259;51.080;13.712;2023-07-09T12:22:17;100681.47;;;30.28;39.32
6453;BME280;3259;51.080;13.712;2023-07-09T12:25:18;100674.44;;;30.27;39.40
6453;BME280;3259;51.080;13.712;2023-07-09T12:28:13;100671.28;;;30.30;39.26
6453;BME280;3259;51.080;13.712;2023-07-09T12:31:02;100668.38;;;30.31;38.74
6453;BME280;3259;51.080;13.712;2023-07-09T12:33:53;100663.00;;;30.31;38.89
6453;BME280;3259;51.080;13.712;2023-07-09T12:36:45;100661.56;;;30.29;39.07
6453;BME280;3259;51.080;13.712;2023-07-09T12:39:37;100658.88;;;30.29;39.38
6453;BME280;3259;51.080;13.712;2023-07-09T12:42:30;100659.50;;;30.31;39.25
6453;BME280;3259;51.080;13.712;2023-07-09T12:45:21;100659.50;;;30.31;38.90
6453;BME280;3259;51.080;13.712;2023-07-09T12:48:11;100661.13;;;30.32;39.04
6453;BME280;3259;51.080;13.712;2023-07-09T12:51:01;100659.50;;;30.31;39.05
6453;BME280;3259;51.080;13.712;2023-07-09T12:54:00;100652.00;;;30.33;39.21
6453;BME280;3259;51.080;13.712;2023-07-09T12:56:51;100647.81;;;30.37;38.87
6453;BME280;3259;51.080;13.712;2023-07-09T12:59:42;100642.72;;;30.47;39.00
6453;BME280;3259;51.080;13.712;2023-07-09T13:02:37;100645.53;;;30.52;39.21
6453;BME280;3259;51.080;13.712;2023-07-09T13:05:27;100650.34;;;30.50;39.08
6453;BME280;3259;51.080;13.712;2023-07-09T13:08:16;100644.34;;;30.48;38.73
6453;BME280;3259;51.080;13.712;2023-07-09T13:11:14;100637.72;;;30.50;39.00
6453;BME280;3259;51.080;13.712;2023-07-09T13:14:11;100641.38;;;30.56;39.02
6453;BME280;3259;51.080;13.712;2023-07-09T13:17:07;100639.34;;;30.51;39.17
6453;BME280;3259;51.080;13.712;2023-07-09T13:19:57;100637.03;;;30.55;38.93
6453;BME280;3259;51.080;13.712;2023-07-09T13:22:46;100632.22;;;30.57;38.91
6453;BME280;3259;51.080;13.712;2023-07-09T13:25:35;100642.16;;;30.56;39.09
6453;BME280;3259;51.080;13.712;2023-07-09T13:28:33;100639.25;;;30.58;39.25
6453;BME280;3259;51.080;13.712;2023-07-09T13:31:22;100631.19;;;30.58;38.88
6453;BME280;3259;51.080;13.712;2023-07-09T13:34:19;100633.44;;;30.61;39.17
6453;BME280;3259;51.080;13.712;2023-07-09T13:37:11;100636.50;;;30.64;38.77
6453;BME280;3259;51.080;13.712;2023-07-09T13:40:00;100628.44;;;30.64;39.13
6453;BME280;3259;51.080;13.712;2023-07-09T13:42:49;100636.72;;;30.63;38.79
6453;BME280;3259;51.080;13.712;2023-07-09T13:45:37;100637.31;;;30.65;38.79
6453;BME280;3259;51.080;13.712;2023-07-09T13:48:27;100635.84;;;30.69;39.03
6453;BME280;3259;51.080;13.712;2023-07-09T13:51:20;100628.34;;;30.71;38.74
6453;BME280;3259;51.080;13.712;2023-07-09T13:54:15;100622.94;;;30.71;38.81
6453;BME280;3259;51.080;13.712;2023-07-09T13:57:05;100623.53;;;30.73;39.01
6453;BME280;3259;51.080;13.712;2023-07-09T13:59:54;100616.28;;;30.73;39.23
6453;BME280;3259;51.080;13.712;2023-07-09T14:02:45;100624.13;;;30.75;38.92
6453;BME280;3259;51.080;13.712;2023-07-09T14:05:34;100627.41;;;30.77;38.82
6453;BME280;3259;51.080;13.712;2023-07-09T14:08:24;100620.66;;;30.86;38.87
6453;BME280;3259;51.080;13.712;2023-07-09T14:11:16;100616.19;;;30.80;38.93
6453;BME280;3259;51.080;13.712;2023-07-09T14:14:16;100624.88;;;30.82;38.93
6453;BME280;3259;51.080;13.712;2023-07-09T14:17:07;100630.63;;;30.85;38.91
6453;BME280;3259;51.080;13.712;2023-07-09T14:19:56;100627.25;;;30.90;38.69
6453;BME280;3259;51.080;13.712;2023-07-09T14:22:48;100619.38;;;30.88;39.00
6453;BME280;3259;51.080;13.712;2023-07-09T14:25:38;100621.00;;;30.89;39.14
6453;BME280;3259;51.080;13.712;2023-07-09T14:28:27;100625.56;;;30.89;38.99
6453;BME280;3259;51.080;13.712;2023-07-09T14:31:22;100623.50;;;30.91;38.78
6453;BME280;3259;51.080;13.712;2023-07-09T14:34:19;100613.16;;;30.88;38.67
6453;BME280;3259;51.080;13.712;2023-07-09T14:37:08;100611.78;;;30.97;38.69
6453;BME280;3259;51.080;13.712;2023-07-09T14:39:57;100609.56;;;30.94;38.58
6453;BME280;3259;51.080;13.712;2023-07-09T14:42:48;100615.16;;;30.92;39.18
6453;BME280;3259;51.080;13.712;2023-07-09T14:45:38;100605.59;;;30.96;38.56
6453;BME280;3259;51.080;13.712;2023-07-09T14:48:27;100605.22;;;30.93;38.78
6453;BME280;3259;51.080;13.712;2023-07-09T14:51:16;100608.03;;;30.98;38.69
6453;BME280;3259;51.080;13.712;2023-07-09T14:54:15;100606.16;;;30.98;38.98
6453;BME280;3259;51.080;13.712;2023-07-09T14:57:18;100602.53;;;31.04;39.06
6453;BME280;3259;51.080;13.712;2023-07-09T15:00:14;100603.38;;;31.04;39.08
6453;BME280;3259;51.080;13.712;2023-07-09T15:03:03;100598.66;;;31.00;39.14
6453;BME280;3259;51.080;13.712;2023-07-09T15:05:52;100593.16;;;31.06;39.15
6453;BME280;3259;51.080;13.712;2023-07-09T15:08:42;100601.72;;;31.03;38.98